sensor_id;sensor_type;location;lat;lon;timestamp;P1;durP1;ratioP1;P2;durP2;ratioP2
11911;SDS011;6016;41.928;25.556;2022-10-16T00:00:41;9.23;;;4.53;;
11911;SDS011;6016;41.928;25.556;2022-10-16T00:03:09;10.02;;;5.38;;
11911;SDS011;6016;41.928;25.556;2022-10-16T00:05:40;9.60;;;4.72;;
11911;SDS011;6016;41.928;25.556;2022-10-16T00:08:07;8.95;;;4.53;;
11911;SDS011;6016;41.928;25.556;2022-10-16T00:10:35;9.05;;;4.15;;
11911;SDS011;6016;41.928;25.556;2022-10-16T00:13:02;9.90;;;4.35;;
11911;SDS011;6016;41.928;25.556;2022-10-16T00:15:31;9.15;;;4.68;;
11911;SDS011;6016;41.928;25.556;2022-10-16T00:18:01;11.00;;;5.10;;
11911;SDS011;6016;41.928;25.556;2022-10-16T00:20:28;9.85;;;5.30;;
11911;SDS011;6016;41.928;25.556;2022-10-16T00:22:58;10.57;;;5.30;;
11911;SDS011;6016;41.928;25.556;2022-10-16T00:25:25;9.38;;;4.70;;
11911;SDS011;6016;41.928;25.556;2022-10-16T00:27:52;8.70;;;4.90;;
11911;SDS011;6016;41.928;25.556;2022-10-16T00:30:19;9.07;;;4.70;;
11911;SDS011;6016;41.928;25.556;2022-10-16T00:32:47;9.63;;;4.15;;
11911;SDS011;6016;41.928;25.556;2022-10-16T00:35:14;9.38;;;4.40;;
11911;SDS011;6016;41.928;25.556;2022-10-16T00:37:41;10.32;;;4.53;;
11911;SDS011;6016;41.928;25.556;2022-10-16T00:40:09;9.82;;;4.45;;
11911;SDS011;6016;41.928;25.556;2022-10-16T00:42:36;11.18;;;5.10;;
11911;SDS011;6016;41.928;25.556;2022-10-16T00:45:03;9.70;;;4.35;;
11911;SDS011;6016;41.928;25.556;2022-10-16T00:47:32;10.57;;;5.35;;
11911;SDS011;6016;41.928;25.556;2022-10-16T00:50:05;10.18;;;5.13;;
11911;SDS011;6016;41.928;25.556;2022-10-16T00:52:35;9.48;;;4.45;;
11911;SDS011;6016;41.928;25.556;2022-10-16T00:55:03;10.80;;;5.25;;
11911;SDS011;6016;41.928;25.556;2022-10-16T00:57:32;9.50;;;4.57;;
11911;SDS011;6016;41.928;25.556;2022-10-16T00:59:59;10.88;;;5.20;;
11911;SDS011;6016;41.928;25.556;2022-10-16T01:02:26;10.45;;;4.80;;
11911;SDS011;6016;41.928;25.556;2022-10-16T01:04:53;8.05;;;4.82;;
11911;SDS011;6016;41.928;25.556;2022-10-16T01:07:26;9.88;;;4.80;;
11911;SDS011;6016;41.928;25.556;2022-10-16T01:10:04;12.38;;;4.70;;
11911;SDS011;6016;41.928;25.556;2022-10-16T01:12:40;11.48;;;4.90;;
11911;SDS011;6016;41.928;25.556;2022-10-16T01:15:13;11.43;;;4.90;;
11911;SDS011;6016;41.928;25.556;2022-10-16T01:17:48;9.80;;;4.63;;
11911;SDS011;6016;41.928;25.556;2022-10-16T01:20:24;11.70;;;4.65;;
11911;SDS011;6016;41.928;25.556;2022-10-16T01:23:01;13.00;;;5.22;;
11911;SDS011;6016;41.928;25.556;2022-10-16T01:25:49;8.68;;;4.85;;
11911;SDS011;6016;41.928;25.556;2022-10-16T01:28:29;11.25;;;5.05;;
11911;SDS011;6016;41.928;25.556;2022-10-16T01:31:02;13.18;;;5.43;;
11911;SDS011;6016;41.928;25.556;2022-10-16T01:33:32;13.18;;;5.68;;
11911;SDS011;6016;41.928;25.556;2022-10-16T01:36:07;11.88;;;4.80;;
11911;SDS011;6016;41.928;25.556;2022-10-16T01:38:39;9.02;;;4.40;;
11911;SDS011;6016;41.928;25.556;2022-10-16T01:41:09;10.77;;;4.13;;
11911;SDS011;6016;41.928;25.556;2022-10-16T01:43:40;8.95;;;4.55;;
11911;SDS011;6016;41.928;25.556;2022-10-16T01:46:10;9.65;;;4.53;;
11911;SDS011;6016;41.928;25.556;2022-10-16T01:48:39;12.15;;;4.75;;
11911;SDS011;6016;41.928;25.556;2022-10-16T01:51:08;8.60;;;4.30;;
11911;SDS011;6016;41.928;25.556;2022-10-16T01:53:37;11.35;;;4.35;;
11911;SDS011;6016;41.928;25.556;2022-10-16T01:56:06;7.70;;;4.93;;
11911;SDS011;6016;41.928;25.556;2022-10-16T01:58:37;7.63;;;4.35;;
11911;SDS011;6016;41.928;25.556;2022-10-16T02:01:09;8.00;;;3.95;;
11911;SDS011;6016;41.928;25.556;2022-10-16T02:03:40;8.90;;;4.18;;
11911;SDS011;6016;41.928;25.556;2022-10-16T02:06:10;6.13;;;4.30;;
11911;SDS011;6016;41.928;25.556;2022-10-16T02:08:38;9.10;;;4.25;;
11911;SDS011;6016;41.928;25.556;2022-10-16T02:11:09;7.25;;;4.30;;
11911;SDS011;6016;41.928;25.556;2022-10-16T02:13:37;8.10;;;4.40;;
11911;SDS011;6016;41.928;25.556;2022-10-16T02:16:11;8.40;;;4.40;;
11911;SDS011;6016;41.928;25.556;2022-10-16T02:18:39;8.30;;;4.50;;
11911;SDS011;6016;41.928;25.556;2022-10-16T02:21:08;12.10;;;4.53;;
11911;SDS011;6016;41.928;25.556;2022-10-16T02:23:45;6.57;;;3.83;;
11911;SDS011;6016;41.928;25.556;2022-10-16T02:26:19;7.53;;;4.32;;
11911;SDS011;6016;41.928;25.556;2022-10-16T02:28:53;11.38;;;4.40;;
11911;SDS011;6016;41.928;25.556;2022-10-16T02:31:27;7.85;;;4.00;;
11911;SDS011;6016;41.928;25.556;2022-10-16T02:33:59;13.48;;;4.13;;
11911;SDS011;6016;41.928;25.556;2022-10-16T02:36:30;5.90;;;3.80;;
11911;SDS011;6016;41.928;25.556;2022-10-16T02:38:58;8.40;;;4.00;;
11911;SDS011;6016;41.928;25.556;2022-10-16T02:41:26;7.72;;;4.00;;
11911;SDS011;6016;41.928;25.556;2022-10-16T02:43:53;10.23;;;4.40;;
11911;SDS011;6016;41.928;25.556;2022-10-16T02:46:21;6.68;;;4.25;;
11911;SDS011;6016;41.928;25.556;2022-10-16T02:48:49;6.47;;;4.00;;
11911;SDS011;6016;41.928;25.556;2022-10-16T02:51:16;7.50;;;3.80;;
11911;SDS011;6016;41.928;25.556;2022-10-16T02:53:43;8.13;;;3.97;;
11911;SDS011;6016;41.928;25.556;2022-10-16T02:56:10;6.97;;;4.20;;
11911;SDS011;6016;41.928;25.556;2022-10-16T02:58:37;8.07;;;4.03;;
11911;SDS011;6016;41.928;25.556;2022-10-16T03:01:04;7.32;;;4.00;;
11911;SDS011;6016;41.928;25.556;2022-10-16T03:03:30;5.70;;;3.70;;
11911;SDS011;6016;41.928;25.556;2022-10-16T03:05:59;9.00;;;3.90;;
11911;SDS011;6016;41.928;25.556;2022-10-16T03:08:26;7.10;;;4.53;;
11911;SDS011;6016;41.928;25.556;2022-10-16T03:10:53;9.40;;;4.18;;
11911;SDS011;6016;41.928;25.556;2022-10-16T03:13:20;6.00;;;3.67;;
11911;SDS011;6016;41.928;25.556;2022-10-16T03:15:47;11.15;;;4.10;;
11911;SDS011;6016;41.928;25.556;2022-10-16T03:18:14;5.88;;;3.70;;
11911;SDS011;6016;41.928;25.556;2022-10-16T03:20:42;10.13;;;3.92;;
11911;SDS011;6016;41.928;25.556;2022-10-16T03:23:11;6.10;;;3.53;;
11911;SDS011;6016;41.928;25.556;2022-10-16T03:25:38;8.05;;;4.00;;
11911;SDS011;6016;41.928;25.556;2022-10-16T03:28:04;9.30;;;4.07;;
11911;SDS011;6016;41.928;25.556;2022-10-16T03:30:31;7.82;;;4.13;;
11911;SDS011;6016;41.928;25.556;2022-10-16T03:32:59;7.10;;;4.03;;
11911;SDS011;6016;41.928;25.556;2022-10-16T03:35:25;6.13;;;4.07;;
11911;SDS011;6016;41.928;25.556;2022-10-16T03:37:52;7.03;;;4.30;;
11911;SDS011;6016;41.928;25.556;2022-10-16T03:40:21;9.93;;;4.35;;
11911;SDS011;6016;41.928;25.556;2022-10-16T03:42:48;7.95;;;3.50;;
11911;SDS011;6016;41.928;25.556;2022-10-16T03:45:15;8.63;;;4.32;;
11911;SDS011;6016;41.928;25.556;2022-10-16T03:47:42;7.43;;;4.20;;
11911;SDS011;6016;41.928;25.556;2022-10-16T03:50:09;10.50;;;4.35;;
11911;SDS011;6016;41.928;25.556;2022-10-16T03:52:36;7.78;;;4.10;;
11911;SDS011;6016;41.928;25.556;2022-10-16T03:55:03;8.93;;;4.35;;
11911;SDS011;6016;41.928;25.556;2022-10-16T03:57:32;7.88;;;4.53;;
11911;SDS011;6016;41.928;25.556;2022-10-16T03:59:59;7.97;;;4.32;;
11911;SDS011;6016;41.928;25.556;2022-10-16T04:02:26;7.88;;;4.40;;
11911;SDS011;6016;41.928;25.556;2022-10-16T04:04:53;5.75;;;3.80;;
11911;SDS011;6016;41.928;25.556;2022-10-16T04:07:19;7.88;;;3.70;;
11911;SDS011;6016;41.928;25.556;2022-10-16T04:09:46;9.82;;;3.90;;
11911;SDS011;6016;41.928;25.556;2022-10-16T04:12:13;5.45;;;3.60;;
11911;SDS011;6016;41.928;25.556;2022-10-16T04:14:42;10.55;;;4.25;;
11911;SDS011;6016;41.928;25.556;2022-10-16T04:17:08;6.57;;;3.95;;
11911;SDS011;6016;41.928;25.556;2022-10-16T04:19:35;7.60;;;4.00;;
11911;SDS011;6016;41.928;25.556;2022-10-16T04:22:02;10.57;;;4.63;;
11911;SDS011;6016;41.928;25.556;2022-10-16T04:24:29;7.43;;;4.07;;
11911;SDS011;6016;41.928;25.556;2022-10-16T04:26:56;8.82;;;4.20;;
11911;SDS011;6016;41.928;25.556;2022-10-16T04:29:23;8.85;;;4.57;;
11911;SDS011;6016;41.928;25.556;2022-10-16T04:31:52;9.98;;;4.53;;
11911;SDS011;6016;41.928;25.556;2022-10-16T04:34:18;6.32;;;3.88;;
11911;SDS011;6016;41.928;25.556;2022-10-16T04:36:46;7.85;;;4.25;;
11911;SDS011;6016;41.928;25.556;2022-10-16T04:39:13;9.85;;;4.20;;
11911;SDS011;6016;41.928;25.556;2022-10-16T04:41:40;7.50;;;4.30;;
11911;SDS011;6016;41.928;25.556;2022-10-16T04:44:07;10.07;;;4.35;;
11911;SDS011;6016;41.928;25.556;2022-10-16T04:46:34;4.95;;;3.80;;
11911;SDS011;6016;41.928;25.556;2022-10-16T04:49:03;9.13;;;3.80;;
11911;SDS011;6016;41.928;25.556;2022-10-16T04:51:30;8.85;;;4.70;;
11911;SDS011;6016;41.928;25.556;2022-10-16T04:53:57;7.45;;;4.40;;
11911;SDS011;6016;41.928;25.556;2022-10-16T04:56:24;8.27;;;4.15;;
11911;SDS011;6016;41.928;25.556;2022-10-16T04:58:51;10.80;;;4.10;;
11911;SDS011;6016;41.928;25.556;2022-10-16T05:01:18;8.18;;;4.22;;
11911;SDS011;6016;41.928;25.556;2022-10-16T05:03:45;8.75;;;4.38;;
11911;SDS011;6016;41.928;25.556;2022-10-16T05:06:13;9.32;;;4.65;;
11911;SDS011;6016;41.928;25.556;2022-10-16T05:08:40;7.97;;;4.22;;
11911;SDS011;6016;41.928;25.556;2022-10-16T05:11:07;11.38;;;6.53;;
11911;SDS011;6016;41.928;25.556;2022-10-16T05:13:34;12.18;;;5.63;;
11911;SDS011;6016;41.928;25.556;2022-10-16T05:16:01;11.88;;;5.50;;
11911;SDS011;6016;41.928;25.556;2022-10-16T05:18:28;11.18;;;4.93;;
11911;SDS011;6016;41.928;25.556;2022-10-16T05:20:55;10.40;;;5.13;;
11911;SDS011;6016;41.928;25.556;2022-10-16T05:23:23;10.13;;;6.30;;
11911;SDS011;6016;41.928;25.556;2022-10-16T05:25:53;11.00;;;5.30;;
11911;SDS011;6016;41.928;25.556;2022-10-16T05:28:23;19.98;;;6.97;;
11911;SDS011;6016;41.928;25.556;2022-10-16T05:30:50;19.73;;;9.88;;
11911;SDS011;6016;41.928;25.556;2022-10-16T05:33:19;18.63;;;10.55;;
11911;SDS011;6016;41.928;25.556;2022-10-16T05:35:46;14.52;;;8.70;;
11911;SDS011;6016;41.928;25.556;2022-10-16T05:38:15;17.90;;;8.82;;
11911;SDS011;6016;41.928;25.556;2022-10-16T05:40:43;14.20;;;7.80;;
11911;SDS011;6016;41.928;25.556;2022-10-16T05:43:17;13.73;;;8.80;;
11911;SDS011;6016;41.928;25.556;2022-10-16T05:45:44;15.20;;;6.80;;
11911;SDS011;6016;41.928;25.556;2022-10-16T05:48:11;13.40;;;7.05;;
11911;SDS011;6016;41.928;25.556;2022-10-16T05:50:38;11.57;;;6.65;;
11911;SDS011;6016;41.928;25.556;2022-10-16T05:53:04;11.05;;;6.22;;
11911;SDS011;6016;41.928;25.556;2022-10-16T05:55:31;10.48;;;6.30;;
11911;SDS011;6016;41.928;25.556;2022-10-16T05:58:00;14.93;;;7.18;;
11911;SDS011;6016;41.928;25.556;2022-10-16T06:00:27;13.05;;;6.38;;
11911;SDS011;6016;41.928;25.556;2022-10-16T06:02:54;12.55;;;6.35;;
11911;SDS011;6016;41.928;25.556;2022-10-16T06:05:21;10.82;;;6.50;;
11911;SDS011;6016;41.928;25.556;2022-10-16T06:07:48;10.38;;;6.30;;
11911;SDS011;6016;41.928;25.556;2022-10-16T06:10:15;10.55;;;6.07;;
11911;SDS011;6016;41.928;25.556;2022-10-16T06:12:42;14.38;;;6.82;;
11911;SDS011;6016;41.928;25.556;2022-10-16T06:15:10;12.15;;;6.53;;
11911;SDS011;6016;41.928;25.556;2022-10-16T06:17:37;11.25;;;6.90;;
11911;SDS011;6016;41.928;25.556;2022-10-16T06:20:04;19.92;;;10.90;;
11911;SDS011;6016;41.928;25.556;2022-10-16T06:22:31;20.08;;;9.70;;
11911;SDS011;6016;41.928;25.556;2022-10-16T06:24:58;17.48;;;9.80;;
11911;SDS011;6016;41.928;25.556;2022-10-16T06:27:25;18.80;;;8.65;;
11911;SDS011;6016;41.928;25.556;2022-10-16T06:29:52;21.25;;;10.18;;
11911;SDS011;6016;41.928;25.556;2022-10-16T06:32:23;24.17;;;12.68;;
11911;SDS011;6016;41.928;25.556;2022-10-16T06:34:50;15.75;;;8.43;;
11911;SDS011;6016;41.928;25.556;2022-10-16T06:37:17;16.35;;;6.03;;
11911;SDS011;6016;41.928;25.556;2022-10-16T06:39:43;8.60;;;5.28;;
11911;SDS011;6016;41.928;25.556;2022-10-16T06:42:10;46.47;;;9.30;;
11911;SDS011;6016;41.928;25.556;2022-10-16T06:44:37;12.98;;;6.15;;
11911;SDS011;6016;41.928;25.556;2022-10-16T06:47:04;21.75;;;6.22;;
11911;SDS011;6016;41.928;25.556;2022-10-16T06:49:33;11.57;;;5.50;;
11911;SDS011;6016;41.928;25.556;2022-10-16T06:52:00;19.23;;;11.93;;
11911;SDS011;6016;41.928;25.556;2022-10-16T06:54:27;11.02;;;8.45;;
11911;SDS011;6016;41.928;25.556;2022-10-16T06:56:54;12.80;;;7.13;;
11911;SDS011;6016;41.928;25.556;2022-10-16T06:59:21;12.13;;;7.05;;
11911;SDS011;6016;41.928;25.556;2022-10-16T07:01:48;19.02;;;8.30;;
11911;SDS011;6016;41.928;25.556;2022-10-16T07:04:15;17.75;;;6.18;;
11911;SDS011;6016;41.928;25.556;2022-10-16T07:06:43;8.38;;;5.57;;
11911;SDS011;6016;41.928;25.556;2022-10-16T07:09:11;9.88;;;4.85;;
11911;SDS011;6016;41.928;25.556;2022-10-16T07:11:38;9.63;;;5.45;;
11911;SDS011;6016;41.928;25.556;2022-10-16T07:14:09;12.65;;;5.25;;
11911;SDS011;6016;41.928;25.556;2022-10-16T07:16:41;7.53;;;4.60;;
11911;SDS011;6016;41.928;25.556;2022-10-16T07:19:08;8.75;;;4.10;;
11911;SDS011;6016;41.928;25.556;2022-10-16T07:21:37;10.63;;;4.43;;
11911;SDS011;6016;41.928;25.556;2022-10-16T07:24:06;8.02;;;5.28;;
11911;SDS011;6016;41.928;25.556;2022-10-16T07:26:36;7.50;;;4.55;;
11911;SDS011;6016;41.928;25.556;2022-10-16T07:29:04;6.35;;;3.97;;
11911;SDS011;6016;41.928;25.556;2022-10-16T07:31:33;6.22;;;4.10;;
11911;SDS011;6016;41.928;25.556;2022-10-16T07:34:00;6.13;;;4.03;;
11911;SDS011;6016;41.928;25.556;2022-10-16T07:36:27;7.68;;;3.83;;
11911;SDS011;6016;41.928;25.556;2022-10-16T07:38:54;9.32;;;3.65;;
11911;SDS011;6016;41.928;25.556;2022-10-16T07:41:22;6.13;;;3.92;;
11911;SDS011;6016;41.928;25.556;2022-10-16T07:43:49;7.40;;;4.25;;
11911;SDS011;6016;41.928;25.556;2022-10-16T07:46:18;10.80;;;4.18;;
11911;SDS011;6016;41.928;25.556;2022-10-16T07:48:45;8.65;;;3.67;;
11911;SDS011;6016;41.928;25.556;2022-10-16T07:51:13;8.15;;;3.67;;
11911;SDS011;6016;41.928;25.556;2022-10-16T07:53:41;8.45;;;4.03;;
11911;SDS011;6016;41.928;25.556;2022-10-16T07:56:08;7.90;;;4.30;;
11911;SDS011;6016;41.928;25.556;2022-10-16T07:58:37;6.93;;;3.90;;
11911;SDS011;6016;41.928;25.556;2022-10-16T08:01:05;6.70;;;4.18;;
11911;SDS011;6016;41.928;25.556;2022-10-16T08:03:33;10.10;;;3.80;;
11911;SDS011;6016;41.928;25.556;2022-10-16T08:06:00;5.40;;;3.70;;
11911;SDS011;6016;41.928;25.556;2022-10-16T08:08:28;5.97;;;3.67;;
11911;SDS011;6016;41.928;25.556;2022-10-16T08:10:55;8.15;;;4.35;;
11911;SDS011;6016;41.928;25.556;2022-10-16T08:13:22;9.98;;;6.65;;
11911;SDS011;6016;41.928;25.556;2022-10-16T08:15:50;12.15;;;6.88;;
11911;SDS011;6016;41.928;25.556;2022-10-16T08:18:17;7.60;;;4.28;;
11911;SDS011;6016;41.928;25.556;2022-10-16T08:20:44;8.75;;;4.07;;
11911;SDS011;6016;41.928;25.556;2022-10-16T08:23:12;6.72;;;3.70;;
11911;SDS011;6016;41.928;25.556;2022-10-16T08:25:39;9.70;;;4.40;;
11911;SDS011;6016;41.928;25.556;2022-10-16T08:28:07;6.63;;;3.83;;
11911;SDS011;6016;41.928;25.556;2022-10-16T08:30:35;8.23;;;3.95;;
11911;SDS011;6016;41.928;25.556;2022-10-16T08:33:04;25.15;;;16.38;;
11911;SDS011;6016;41.928;25.556;2022-10-16T08:35:31;7.97;;;5.47;;
11911;SDS011;6016;41.928;25.556;2022-10-16T08:37:58;17.40;;;8.07;;
11911;SDS011;6016;41.928;25.556;2022-10-16T08:40:25;35.28;;;11.60;;
11911;SDS011;6016;41.928;25.556;2022-10-16T08:43:00;20.42;;;7.15;;
11911;SDS011;6016;41.928;25.556;2022-10-16T08:45:43;17.98;;;6.88;;
11911;SDS011;6016;41.928;25.556;2022-10-16T08:48:25;25.35;;;6.60;;
11911;SDS011;6016;41.928;25.556;2022-10-16T08:50:57;11.90;;;6.35;;
11911;SDS011;6016;41.928;25.556;2022-10-16T08:53:25;9.82;;;6.32;;
11911;SDS011;6016;41.928;25.556;2022-10-16T08:58:26;12.73;;;7.35;;
11911;SDS011;6016;41.928;25.556;2022-10-16T09:00:54;29.75;;;15.32;;
11911;SDS011;6016;41.928;25.556;2022-10-16T09:03:31;22.00;;;11.02;;
11911;SDS011;6016;41.928;25.556;2022-10-16T09:06:09;10.77;;;7.50;;
11911;SDS011;6016;41.928;25.556;2022-10-16T09:08:46;9.55;;;6.65;;
11911;SDS011;6016;41.928;25.556;2022-10-16T09:11:25;12.05;;;6.70;;
11911;SDS011;6016;41.928;25.556;2022-10-16T09:14:03;12.70;;;6.47;;
11911;SDS011;6016;41.928;25.556;2022-10-16T09:16:38;13.85;;;6.47;;
11911;SDS011;6016;41.928;25.556;2022-10-16T09:19:13;13.05;;;6.82;;
11911;SDS011;6016;41.928;25.556;2022-10-16T09:21:47;8.98;;;6.20;;
11911;SDS011;6016;41.928;25.556;2022-10-16T09:24:15;12.13;;;6.93;;
11911;SDS011;6016;41.928;25.556;2022-10-16T09:26:43;11.70;;;7.15;;
11911;SDS011;6016;41.928;25.556;2022-10-16T09:29:11;10.60;;;6.70;;
11911;SDS011;6016;41.928;25.556;2022-10-16T09:31:39;9.02;;;6.28;;
11911;SDS011;6016;41.928;25.556;2022-10-16T09:34:08;9.63;;;6.38;;
11911;SDS011;6016;41.928;25.556;2022-10-16T09:36:48;11.00;;;6.93;;
11911;SDS011;6016;41.928;25.556;2022-10-16T09:39:15;12.15;;;6.93;;
11911;SDS011;6016;41.928;25.556;2022-10-16T09:41:43;13.48;;;6.80;;
11911;SDS011;6016;41.928;25.556;2022-10-16T09:44:17;9.02;;;6.13;;
11911;SDS011;6016;41.928;25.556;2022-10-16T09:46:47;14.35;;;7.70;;
11911;SDS011;6016;41.928;25.556;2022-10-16T09:49:20;12.02;;;6.53;;
11911;SDS011;6016;41.928;25.556;2022-10-16T09:51:49;12.35;;;6.82;;
11911;SDS011;6016;41.928;25.556;2022-10-16T09:54:19;10.85;;;6.45;;
11911;SDS011;6016;41.928;25.556;2022-10-16T09:56:47;12.50;;;7.82;;
11911;SDS011;6016;41.928;25.556;2022-10-16T09:59:17;11.90;;;7.38;;
11911;SDS011;6016;41.928;25.556;2022-10-16T10:01:46;12.43;;;7.78;;
11911;SDS011;6016;41.928;25.556;2022-10-16T10:04:16;15.50;;;7.22;;
11911;SDS011;6016;41.928;25.556;2022-10-16T10:06:45;11.35;;;7.03;;
11911;SDS011;6016;41.928;25.556;2022-10-16T10:09:16;11.15;;;7.22;;
11911;SDS011;6016;41.928;25.556;2022-10-16T10:11:49;14.98;;;7.10;;
11911;SDS011;6016;41.928;25.556;2022-10-16T10:14:20;13.15;;;7.03;;
11911;SDS011;6016;41.928;25.556;2022-10-16T10:16:52;14.00;;;7.53;;
11911;SDS011;6016;41.928;25.556;2022-10-16T10:19:37;14.88;;;6.97;;
11911;SDS011;6016;41.928;25.556;2022-10-16T10:22:15;10.43;;;6.65;;
11911;SDS011;6016;41.928;25.556;2022-10-16T10:24:43;12.52;;;7.28;;
11911;SDS011;6016;41.928;25.556;2022-10-16T10:27:12;10.82;;;6.80;;
11911;SDS011;6016;41.928;25.556;2022-10-16T10:29:46;10.63;;;6.55;;
11911;SDS011;6016;41.928;25.556;2022-10-16T10:32:23;12.63;;;7.25;;
11911;SDS011;6016;41.928;25.556;2022-10-16T10:35:07;9.02;;;6.55;;
11911;SDS011;6016;41.928;25.556;2022-10-16T10:37:45;9.20;;;6.03;;
11911;SDS011;6016;41.928;25.556;2022-10-16T10:40:30;10.02;;;6.38;;
11911;SDS011;6016;41.928;25.556;2022-10-16T10:43:07;12.55;;;6.63;;
11911;SDS011;6016;41.928;25.556;2022-10-16T10:45:44;12.82;;;7.55;;
11911;SDS011;6016;41.928;25.556;2022-10-16T10:48:17;12.10;;;6.78;;
11911;SDS011;6016;41.928;25.556;2022-10-16T10:50:56;13.18;;;7.13;;
11911;SDS011;6016;41.928;25.556;2022-10-16T10:53:35;8.93;;;6.35;;
11911;SDS011;6016;41.928;25.556;2022-10-16T10:56:14;13.57;;;7.60;;
11911;SDS011;6016;41.928;25.556;2022-10-16T10:59:05;14.00;;;7.40;;
11911;SDS011;6016;41.928;25.556;2022-10-16T11:01:46;11.45;;;6.35;;
11911;SDS011;6016;41.928;25.556;2022-10-16T11:04:23;10.45;;;6.18;;
11911;SDS011;6016;41.928;25.556;2022-10-16T11:09:32;10.23;;;5.25;;
11911;SDS011;6016;41.928;25.556;2022-10-16T11:12:05;10.15;;;5.85;;
11911;SDS011;6016;41.928;25.556;2022-10-16T11:14:42;11.35;;;6.05;;
11911;SDS011;6016;41.928;25.556;2022-10-16T11:17:15;11.10;;;5.47;;
11911;SDS011;6016;41.928;25.556;2022-10-16T11:19:46;11.63;;;5.68;;
11911;SDS011;6016;41.928;25.556;2022-10-16T11:22:20;9.70;;;5.65;;
11911;SDS011;6016;41.928;25.556;2022-10-16T11:24:54;8.38;;;5.53;;
11911;SDS011;6016;41.928;25.556;2022-10-16T11:27:35;10.63;;;5.40;;
11911;SDS011;6016;41.928;25.556;2022-10-16T11:30:04;7.85;;;4.90;;
11911;SDS011;6016;41.928;25.556;2022-10-16T11:32:42;7.47;;;4.80;;
11911;SDS011;6016;41.928;25.556;2022-10-16T11:35:19;9.63;;;5.13;;
11911;SDS011;6016;41.928;25.556;2022-10-16T11:37:50;8.63;;;5.45;;
11911;SDS011;6016;41.928;25.556;2022-10-16T11:40:23;12.40;;;5.15;;
11911;SDS011;6016;41.928;25.556;2022-10-16T11:42:56;7.93;;;4.65;;
11911;SDS011;6016;41.928;25.556;2022-10-16T11:45:30;8.10;;;4.85;;
11911;SDS011;6016;41.928;25.556;2022-10-16T11:48:07;7.80;;;4.40;;
11911;SDS011;6016;41.928;25.556;2022-10-16T11:50:45;18.45;;;5.32;;
11911;SDS011;6016;41.928;25.556;2022-10-16T11:53:21;14.13;;;5.07;;
11911;SDS011;6016;41.928;25.556;2022-10-16T11:55:58;9.13;;;5.03;;
11911;SDS011;6016;41.928;25.556;2022-10-16T11:58:26;8.05;;;4.57;;
11911;SDS011;6016;41.928;25.556;2022-10-16T12:01:00;5.47;;;4.05;;
11911;SDS011;6016;41.928;25.556;2022-10-16T12:06:14;9.93;;;4.35;;
11911;SDS011;6016;41.928;25.556;2022-10-16T12:08:50;10.52;;;4.30;;
11911;SDS011;6016;41.928;25.556;2022-10-16T12:11:32;13.68;;;8.48;;
11911;SDS011;6016;41.928;25.556;2022-10-16T12:14:06;7.15;;;3.90;;
11911;SDS011;6016;41.928;25.556;2022-10-16T12:16:50;5.45;;;3.63;;
11911;SDS011;6016;41.928;25.556;2022-10-16T12:19:19;5.18;;;3.63;;
11911;SDS011;6016;41.928;25.556;2022-10-16T12:21:47;4.45;;;3.50;;
11911;SDS011;6016;41.928;25.556;2022-10-16T12:24:21;5.70;;;3.50;;
11911;SDS011;6016;41.928;25.556;2022-10-16T12:26:55;5.93;;;3.35;;
11911;SDS011;6016;41.928;25.556;2022-10-16T12:29:26;11.45;;;3.75;;
11911;SDS011;6016;41.928;25.556;2022-10-16T12:31:59;6.03;;;3.35;;
11911;SDS011;6016;41.928;25.556;2022-10-16T12:34:27;7.15;;;3.38;;
11911;SDS011;6016;41.928;25.556;2022-10-16T12:37:07;10.63;;;3.33;;
11911;SDS011;6016;41.928;25.556;2022-10-16T12:39:36;4.78;;;3.47;;
11911;SDS011;6016;41.928;25.556;2022-10-16T12:42:06;6.88;;;3.20;;
11911;SDS011;6016;41.928;25.556;2022-10-16T12:44:47;6.13;;;3.50;;
11911;SDS011;6016;41.928;25.556;2022-10-16T12:47:19;5.55;;;3.35;;
11911;SDS011;6016;41.928;25.556;2022-10-16T12:49:48;5.55;;;3.72;;
11911;SDS011;6016;41.928;25.556;2022-10-16T12:52:24;7.93;;;4.15;;
11911;SDS011;6016;41.928;25.556;2022-10-16T12:54:55;8.48;;;4.88;;
11911;SDS011;6016;41.928;25.556;2022-10-16T12:57:32;12.43;;;6.30;;
11911;SDS011;6016;41.928;25.556;2022-10-16T13:00:10;10.68;;;5.93;;
11911;SDS011;6016;41.928;25.556;2022-10-16T13:05:57;6.30;;;3.80;;
11911;SDS011;6016;41.928;25.556;2022-10-16T13:08:42;6.30;;;3.95;;
11911;SDS011;6016;41.928;25.556;2022-10-16T13:11:23;6.20;;;3.70;;
11911;SDS011;6016;41.928;25.556;2022-10-16T13:14:14;5.80;;;3.50;;
11911;SDS011;6016;41.928;25.556;2022-10-16T13:16:56;4.35;;;3.50;;
11911;SDS011;6016;41.928;25.556;2022-10-16T13:19:34;6.13;;;3.80;;
11911;SDS011;6016;41.928;25.556;2022-10-16T13:22:11;7.03;;;3.72;;
11911;SDS011;6016;41.928;25.556;2022-10-16T13:24:48;5.47;;;3.65;;
11911;SDS011;6016;41.928;25.556;2022-10-16T13:27:28;5.13;;;3.50;;
11911;SDS011;6016;41.928;25.556;2022-10-16T13:30:10;7.35;;;4.60;;
11911;SDS011;6016;41.928;25.556;2022-10-16T13:32:39;8.25;;;4.63;;
11911;SDS011;6016;41.928;25.556;2022-10-16T13:35:19;7.38;;;4.72;;
11911;SDS011;6016;41.928;25.556;2022-10-16T13:37:48;5.88;;;4.13;;
11911;SDS011;6016;41.928;25.556;2022-10-16T13:40:20;6.65;;;3.85;;
11911;SDS011;6016;41.928;25.556;2022-10-16T13:42:49;6.88;;;4.15;;
11911;SDS011;6016;41.928;25.556;2022-10-16T13:47:47;7.03;;;3.92;;
11911;SDS011;6016;41.928;25.556;2022-10-16T13:50:15;7.50;;;4.07;;
11911;SDS011;6016;41.928;25.556;2022-10-16T13:52:44;10.05;;;3.78;;
11911;SDS011;6016;41.928;25.556;2022-10-16T13:55:11;5.68;;;3.58;;
11911;SDS011;6016;41.928;25.556;2022-10-16T13:57:39;5.88;;;3.17;;
11911;SDS011;6016;41.928;25.556;2022-10-16T14:00:17;7.32;;;3.03;;
11911;SDS011;6016;41.928;25.556;2022-10-16T14:02:50;4.85;;;2.75;;
11911;SDS011;6016;41.928;25.556;2022-10-16T14:05:22;5.57;;;2.75;;
11911;SDS011;6016;41.928;25.556;2022-10-16T14:07:50;6.43;;;2.70;;
11911;SDS011;6016;41.928;25.556;2022-10-16T14:10:19;8.93;;;2.50;;
11911;SDS011;6016;41.928;25.556;2022-10-16T14:12:54;39.90;;;5.03;;
11911;SDS011;6016;41.928;25.556;2022-10-16T14:15:23;7.20;;;2.53;;
11911;SDS011;6016;41.928;25.556;2022-10-16T14:17:50;3.60;;;2.28;;
11911;SDS011;6016;41.928;25.556;2022-10-16T14:20:20;6.30;;;2.60;;
11911;SDS011;6016;41.928;25.556;2022-10-16T14:22:57;7.97;;;2.93;;
11911;SDS011;6016;41.928;25.556;2022-10-16T14:25:27;5.72;;;2.58;;
11911;SDS011;6016;41.928;25.556;2022-10-16T14:27:56;5.60;;;2.58;;
11911;SDS011;6016;41.928;25.556;2022-10-16T14:30:27;10.32;;;2.35;;
11911;SDS011;6016;41.928;25.556;2022-10-16T14:32:55;7.90;;;2.70;;
11911;SDS011;6016;41.928;25.556;2022-10-16T14:35:28;6.93;;;2.47;;
11911;SDS011;6016;41.928;25.556;2022-10-16T14:37:56;4.75;;;2.83;;
11911;SDS011;6016;41.928;25.556;2022-10-16T14:40:25;4.72;;;2.75;;
11911;SDS011;6016;41.928;25.556;2022-10-16T14:42:53;4.75;;;2.70;;
11911;SDS011;6016;41.928;25.556;2022-10-16T14:45:21;4.35;;;2.70;;
11911;SDS011;6016;41.928;25.556;2022-10-16T14:47:52;7.68;;;2.90;;
11911;SDS011;6016;41.928;25.556;2022-10-16T14:50:21;10.82;;;3.28;;
11911;SDS011;6016;41.928;25.556;2022-10-16T14:52:48;5.05;;;3.20;;
11911;SDS011;6016;41.928;25.556;2022-10-16T14:55:16;6.47;;;3.70;;
11911;SDS011;6016;41.928;25.556;2022-10-16T14:57:44;12.75;;;3.05;;
11911;SDS011;6016;41.928;25.556;2022-10-16T15:00:14;9.85;;;3.47;;
11911;SDS011;6016;41.928;25.556;2022-10-16T15:02:44;10.57;;;3.50;;
11911;SDS011;6016;41.928;25.556;2022-10-16T15:05:14;7.70;;;3.15;;
11911;SDS011;6016;41.928;25.556;2022-10-16T15:07:43;7.80;;;3.20;;
11911;SDS011;6016;41.928;25.556;2022-10-16T15:10:11;6.88;;;3.22;;
11911;SDS011;6016;41.928;25.556;2022-10-16T15:12:38;11.10;;;4.22;;